»·PEaware :: TEXAN27 KRND-KRND

TEXAN27 :: KRND-KRND

FLIGHT INFORMATION

Flight Status: Arrived
Operator: Unknown
More flights by this operator :: More flights under this callsign
Pilot: Indie I. (23348)
Aircraft: BEECH AIRCRAFT T-6A TEXAN
(TEX2)
More flights by this aircraft type
Origin: KRND Randolph AFB
United States
Destination: KRND Randolph AFB
United States
More flights between these airports :: More routes between these airports
Route: KRND KRND
File this flight plan on PilotEdge
Remarks: vfr pattern 15R
Altitude:
(Current/Filed)
1,800ft
Speed:
(Current/Filed)
200kts
Departed: 19-Aug-20 12:49 PM
Arrived: 19-Aug-20 01:24 PM
Distance/Time
Traveled:
1nm/0:35
Distance/Time
To Go:
Arrived

Flight Plot

Page will automatically refresh every two minutes.

Flight plan parsing failed; only flown route is shown


Map Options




Map Legend


Flown Route
Filed Route
Departure Airport
Arrival Airport
Navaid (VOR, NDB)
Fix

Horizontal Profiles

Position Reports

Time Latitude Longitude Heading Altitude Ground
Speed
19-Aug-20 12:47 29.530521 -98.306283 325 1767ft 131kts
19-Aug-20 12:48 29.541798 -98.298059 146 990ft 119kts
19-Aug-20 12:49 29.512562 -98.278143 149 1373ft 190kts
19-Aug-20 12:50 29.504063 -98.316203 334 1773ft 217kts
19-Aug-20 12:51 29.558349 -98.342886 55 1564ft 215kts
19-Aug-20 12:52 29.538199 -98.295257 150 1730ft 205kts
19-Aug-20 12:53 29.535773 -98.311242 331 1714ft 131kts
19-Aug-20 12:54 29.535850 -98.293832 149 822ft 114kts
19-Aug-20 12:55 29.505471 -98.282224 249 1806ft 186kts
19-Aug-20 12:56 29.537276 -98.311510 330 1732ft 137kts
19-Aug-20 12:57 29.535457 -98.293602 149 787ft 106kts
19-Aug-20 12:58 29.501030 -98.275012 231 1568ft 203kts
19-Aug-20 12:59 29.519307 -98.323058 328 1843ft 219kts
19-Aug-20 13:00 29.571832 -98.357560 333 1528ft 209kts
19-Aug-20 13:01 29.574808 -98.319865 146 1290ft 194kts
19-Aug-20 13:02 29.540101 -98.296601 149 914ft 139kts
19-Aug-20 13:03 29.508653 -98.281276 224 1542ft 180kts
19-Aug-20 13:04 29.537352 -98.311391 331 1769ft 135kts
19-Aug-20 13:05 29.534629 -98.293019 150 778ft 103kts
19-Aug-20 13:06 29.499939 -98.279718 247 1363ft 201kts
19-Aug-20 13:08 29.522372 -98.325770 329 1819ft 219kts
19-Aug-20 13:09 29.564136 -98.324305 97 1659ft 206kts
19-Aug-20 13:10 29.520630 -98.290388 234 1734ft 186kts
19-Aug-20 13:11 29.548063 -98.310926 50 1439ft 123kts
19-Aug-20 13:12 29.528751 -98.289117 149 766ft 92kts
19-Aug-20 13:13 29.528630 -98.304822 325 1832ft 167kts
19-Aug-20 13:14 29.548770 -98.325547 141 2359ft 156kts
19-Aug-20 13:15 29.504539 -98.320045 202 3756ft 164kts
19-Aug-20 13:16 29.487680 -98.337191 40 2071ft 157kts
19-Aug-20 13:17 29.527382 -98.329374 335 1857ft 208kts
19-Aug-20 13:18 29.562462 -98.322110 93 1597ft 200kts
19-Aug-20 13:19 29.522464 -98.287622 200 1744ft 176kts
19-Aug-20 13:20 29.545722 -98.307238 83 1201ft 140kts
19-Aug-20 13:21 29.523047 -98.285190 150 765ft 63kts
19-Aug-20 13:24 29.534811 -98.292103 174 766ft 0kts
19-Aug-20 13:25 29.534811 -98.292103 174 766ft 0kts
19-Aug-20 13:25 29.534811 -98.292103 174 766ft 0kts
19-Aug-20 13:26 29.534811 -98.292103 174 766ft 0kts
19-Aug-20 13:28 29.534810 -98.292103 174 765ft 0kts
19-Aug-20 13:28 29.534809 -98.292103 174 765ft 0kts
19-Aug-20 13:29 29.534807 -98.292102 174 765ft 0kts
19-Aug-20 13:30 29.534805 -98.292102 174 765ft 0kts
19-Aug-20 13:31 29.534803 -98.292102 174 765ft 0kts
19-Aug-20 13:32 29.534013 -98.292622 150 765ft 16kts
19-Aug-20 13:33 29.497123 -98.280834 239 1371ft 233kts
19-Aug-20 13:34 29.529615 -98.331333 329 1867ft 230kts
19-Aug-20 13:35 29.581592 -98.363449 7 1473ft 191kts
19-Aug-20 13:36 29.579757 -98.322675 150 1268ft 128kts
19-Aug-20 13:37 29.549307 -98.302549 150 1167ft 113kts
19-Aug-20 13:38 29.522066 -98.284611 149 965ft 154kts

Navigation Log

Ident Type
Flight plan parsing failed, navigation log unavailable